sensor_id;sensor_type;location;lat;lon;timestamp;temperature;humidity
76789;DHT22;65740;52.464;13.446;2023-07-20T00:03:15;26.30;36.30
76789;DHT22;65740;52.464;13.446;2023-07-20T00:05:49;26.30;35.60
76789;DHT22;65740;52.464;13.446;2023-07-20T00:08:16;26.30;35.60
76789;DHT22;65740;52.464;13.446;2023-07-20T00:10:49;26.30;35.60
76789;DHT22;65740;52.464;13.446;2023-07-20T00:13:15;26.30;35.50
76789;DHT22;65740;52.464;13.446;2023-07-20T00:15:44;26.30;35.60
76789;DHT22;65740;52.464;13.446;2023-07-20T00:18:19;26.30;35.80
76789;DHT22;65740;52.464;13.446;2023-07-20T00:20:56;26.20;35.50
76789;DHT22;65740;52.464;13.446;2023-07-20T00:23:24;26.30;35.70
76789;DHT22;65740;52.464;13.446;2023-07-20T00:25:54;26.30;35.70
76789;DHT22;65740;52.464;13.446;2023-07-20T00:28:21;26.20;35.60
76789;DHT22;65740;52.464;13.446;2023-07-20T00:30:50;26.20;35.60
76789;DHT22;65740;52.464;13.446;2023-07-20T00:33:19;26.20;35.60
76789;DHT22;65740;52.464;13.446;2023-07-20T00:35:59;26.20;35.60
76789;DHT22;65740;52.464;13.446;2023-07-20T00:38:25;26.20;35.60
76789;DHT22;65740;52.464;13.446;2023-07-20T00:41:04;26.20;35.50
76789;DHT22;65740;52.464;13.446;2023-07-20T00:43:33;26.20;35.50
76789;DHT22;65740;52.464;13.446;2023-07-20T00:46:04;26.10;35.40
76789;DHT22;65740;52.464;13.446;2023-07-20T00:48:33;26.20;35.60
76789;DHT22;65740;52.464;13.446;2023-07-20T00:51:03;26.10;35.50
76789;DHT22;65740;52.464;13.446;2023-07-20T00:53:32;26.10;35.50
76789;DHT22;65740;52.464;13.446;2023-07-20T00:56:11;26.10;35.50
76789;DHT22;65740;52.464;13.446;2023-07-20T00:58:37;26.10;35.50
76789;DHT22;65740;52.464;13.446;2023-07-20T01:01:06;26.10;35.50
76789;DHT22;65740;52.464;13.446;2023-07-20T01:03:37;26.10;35.40
76789;DHT22;65740;52.464;13.446;2023-07-20T01:06:31;26.10;35.50
76789;DHT22;65740;52.464;13.446;2023-07-20T01:09:52;26.10;35.50
76789;DHT22;65740;52.464;13.446;2023-07-20T01:12:30;26.00;35.40
76789;DHT22;65740;52.464;13.446;2023-07-20T01:15:05;26.00;35.40
76789;DHT22;65740;52.464;13.446;2023-07-20T01:17:34;26.00;35.40
76789;DHT22;65740;52.464;13.446;2023-07-20T01:20:05;26.00;35.50
76789;DHT22;65740;52.464;13.446;2023-07-20T01:31:30;25.90;35.40
76789;DHT22;65740;52.464;13.446;2023-07-20T01:34:07;25.90;35.40
76789;DHT22;65740;52.464;13.446;2023-07-20T01:36:39;25.90;35.30
76789;DHT22;65740;52.464;13.446;2023-07-20T01:39:08;25.90;35.20
76789;DHT22;65740;52.464;13.446;2023-07-20T01:41:37;25.90;35.10
76789;DHT22;65740;52.464;13.446;2023-07-20T01:44:04;25.90;35.40
76789;DHT22;65740;52.464;13.446;2023-07-20T01:46:35;25.80;35.60
76789;DHT22;65740;52.464;13.446;2023-07-20T01:49:03;25.80;35.40
76789;DHT22;65740;52.464;13.446;2023-07-20T01:51:34;25.80;35.40
76789;DHT22;65740;52.464;13.446;2023-07-20T01:54:06;25.80;35.30
76789;DHT22;65740;52.464;13.446;2023-07-20T01:56:40;25.80;35.10
76789;DHT22;65740;52.464;13.446;2023-07-20T01:59:08;25.80;35.30
76789;DHT22;65740;52.464;13.446;2023-07-20T02:01:37;25.80;35.40
76789;DHT22;65740;52.464;13.446;2023-07-20T02:04:08;25.80;35.40
76789;DHT22;65740;52.464;13.446;2023-07-20T02:06:36;25.80;35.20
76789;DHT22;65740;52.464;13.446;2023-07-20T02:09:05;25.70;35.20
76789;DHT22;65740;52.464;13.446;2023-07-20T02:11:36;25.80;35.20
76789;DHT22;65740;52.464;13.446;2023-07-20T02:14:02;25.70;35.20
76789;DHT22;65740;52.464;13.446;2023-07-20T02:16:37;25.70;35.40
76789;DHT22;65740;52.464;13.446;2023-07-20T02:19:05;25.70;35.30
76789;DHT22;65740;52.464;13.446;2023-07-20T02:21:35;25.70;35.30
76789;DHT22;65740;52.464;13.446;2023-07-20T02:24:03;25.60;35.30
76789;DHT22;65740;52.464;13.446;2023-07-20T02:26:29;25.70;35.20
76789;DHT22;65740;52.464;13.446;2023-07-20T02:28:59;25.60;35.20
76789;DHT22;65740;52.464;13.446;2023-07-20T02:31:28;25.60;35.20
76789;DHT22;65740;52.464;13.446;2023-07-20T02:33:56;25.60;35.20
76789;DHT22;65740;52.464;13.446;2023-07-20T02:36:24;25.60;35.30
76789;DHT22;65740;52.464;13.446;2023-07-20T02:38:58;25.60;35.30
76789;DHT22;65740;52.464;13.446;2023-07-20T02:41:27;25.60;35.30
76789;DHT22;65740;52.464;13.446;2023-07-20T02:43:58;25.50;35.20
76789;DHT22;65740;52.464;13.446;2023-07-20T02:46:26;25.50;35.30
76789;DHT22;65740;52.464;13.446;2023-07-20T02:48:55;25.50;35.30
76789;DHT22;65740;52.464;13.446;2023-07-20T02:51:24;25.50;35.30
76789;DHT22;65740;52.464;13.446;2023-07-20T02:53:50;25.50;35.40
76789;DHT22;65740;52.464;13.446;2023-07-20T02:56:39;25.50;35.40
76789;DHT22;65740;52.464;13.446;2023-07-20T02:59:11;25.40;35.40
76789;DHT22;65740;52.464;13.446;2023-07-20T03:01:37;25.40;35.40
76789;DHT22;65740;52.464;13.446;2023-07-20T03:04:08;25.40;35.20
76789;DHT22;65740;52.464;13.446;2023-07-20T03:06:38;25.40;35.30
76789;DHT22;65740;52.464;13.446;2023-07-20T03:09:07;25.40;35.40
76789;DHT22;65740;52.464;13.446;2023-07-20T03:11:39;25.40;35.40
76789;DHT22;65740;52.464;13.446;2023-07-20T03:14:08;25.40;35.30
76789;DHT22;65740;52.464;13.446;2023-07-20T03:16:36;25.40;35.40
76789;DHT22;65740;52.464;13.446;2023-07-20T03:19:02;25.30;35.40
76789;DHT22;65740;52.464;13.446;2023-07-20T03:21:29;25.30;35.20
76789;DHT22;65740;52.464;13.446;2023-07-20T03:23:55;25.30;35.40
76789;DHT22;65740;52.464;13.446;2023-07-20T03:26:29;25.30;35.50
76789;DHT22;65740;52.464;13.446;2023-07-20T03:29:21;25.30;35.30
76789;DHT22;65740;52.464;13.446;2023-07-20T03:31:52;25.30;35.80
76789;DHT22;65740;52.464;13.446;2023-07-20T03:34:18;25.30;35.80
76789;DHT22;65740;52.464;13.446;2023-07-20T03:36:50;25.30;35.80
76789;DHT22;65740;52.464;13.446;2023-07-20T03:39:18;25.20;35.40
76789;DHT22;65740;52.464;13.446;2023-07-20T03:41:45;25.20;35.80
76789;DHT22;65740;52.464;13.446;2023-07-20T03:44:14;25.20;35.90
76789;DHT22;65740;52.464;13.446;2023-07-20T03:46:42;25.20;35.80
76789;DHT22;65740;52.464;13.446;2023-07-20T03:49:07;25.20;35.80
76789;DHT22;65740;52.464;13.446;2023-07-20T03:51:34;25.20;35.90
76789;DHT22;65740;52.464;13.446;2023-07-20T03:54:00;25.20;35.80
76789;DHT22;65740;52.464;13.446;2023-07-20T03:56:26;25.20;36.00
76789;DHT22;65740;52.464;13.446;2023-07-20T03:58:51;25.10;35.70
76789;DHT22;65740;52.464;13.446;2023-07-20T04:01:17;25.10;35.90
76789;DHT22;65740;52.464;13.446;2023-07-20T04:03:43;25.10;35.80
76789;DHT22;65740;52.464;13.446;2023-07-20T04:06:08;25.10;35.70
76789;DHT22;65740;52.464;13.446;2023-07-20T04:08:36;25.10;35.70
76789;DHT22;65740;52.464;13.446;2023-07-20T04:11:02;25.10;35.70
76789;DHT22;65740;52.464;13.446;2023-07-20T04:13:28;25.10;35.80
76789;DHT22;65740;52.464;13.446;2023-07-20T04:15:54;25.10;35.80
76789;DHT22;65740;52.464;13.446;2023-07-20T04:18:20;25.10;35.90
76789;DHT22;65740;52.464;13.446;2023-07-20T04:20:46;25.10;36.00
76789;DHT22;65740;52.464;13.446;2023-07-20T04:23:12;25.00;36.00
76789;DHT22;65740;52.464;13.446;2023-07-20T04:25:39;25.00;36.00
76789;DHT22;65740;52.464;13.446;2023-07-20T04:28:07;25.00;35.90
76789;DHT22;65740;52.464;13.446;2023-07-20T04:30:36;25.00;35.90
76789;DHT22;65740;52.464;13.446;2023-07-20T04:33:05;25.00;36.00
76789;DHT22;65740;52.464;13.446;2023-07-20T04:35:51;25.00;36.00
76789;DHT22;65740;52.464;13.446;2023-07-20T04:38:17;25.00;36.10
76789;DHT22;65740;52.464;13.446;2023-07-20T04:40:44;25.00;36.10
76789;DHT22;65740;52.464;13.446;2023-07-20T04:43:10;25.00;36.20
76789;DHT22;65740;52.464;13.446;2023-07-20T04:45:36;24.90;36.10
76789;DHT22;65740;52.464;13.446;2023-07-20T04:48:01;24.90;36.10
76789;DHT22;65740;52.464;13.446;2023-07-20T04:50:27;24.90;36.00
76789;DHT22;65740;52.464;13.446;2023-07-20T04:52:53;24.90;36.60
76789;DHT22;65740;52.464;13.446;2023-07-20T04:55:19;24.90;36.00
76789;DHT22;65740;52.464;13.446;2023-07-20T04:57:44;24.90;36.20
76789;DHT22;65740;52.464;13.446;2023-07-20T05:00:11;24.90;36.30
76789;DHT22;65740;52.464;13.446;2023-07-20T05:02:38;24.90;36.20
76789;DHT22;65740;52.464;13.446;2023-07-20T05:05:04;24.90;36.20
76789;DHT22;65740;52.464;13.446;2023-07-20T05:07:31;24.90;36.20
76789;DHT22;65740;52.464;13.446;2023-07-20T05:09:57;24.90;36.10
76789;DHT22;65740;52.464;13.446;2023-07-20T05:12:23;24.90;36.20
76789;DHT22;65740;52.464;13.446;2023-07-20T05:14:49;24.90;36.20
76789;DHT22;65740;52.464;13.446;2023-07-20T05:17:14;24.90;36.60
76789;DHT22;65740;52.464;13.446;2023-07-20T05:19:40;24.80;36.30
76789;DHT22;65740;52.464;13.446;2023-07-20T05:22:06;24.80;36.50
76789;DHT22;65740;52.464;13.446;2023-07-20T05:24:31;24.80;36.30
76789;DHT22;65740;52.464;13.446;2023-07-20T05:26:58;24.80;36.30
76789;DHT22;65740;52.464;13.446;2023-07-20T05:29:24;24.80;36.30
76789;DHT22;65740;52.464;13.446;2023-07-20T05:31:50;24.80;36.20
76789;DHT22;65740;52.464;13.446;2023-07-20T05:34:16;24.80;36.30
76789;DHT22;65740;52.464;13.446;2023-07-20T05:36:42;24.80;36.20
76789;DHT22;65740;52.464;13.446;2023-07-20T05:39:07;24.80;36.40
76789;DHT22;65740;52.464;13.446;2023-07-20T05:41:33;24.80;36.50
76789;DHT22;65740;52.464;13.446;2023-07-20T05:43:58;24.80;36.30
76789;DHT22;65740;52.464;13.446;2023-07-20T05:46:24;24.80;36.50
76789;DHT22;65740;52.464;13.446;2023-07-20T05:48:50;24.80;36.40
76789;DHT22;65740;52.464;13.446;2023-07-20T05:51:15;24.80;36.30
76789;DHT22;65740;52.464;13.446;2023-07-20T05:53:41;24.80;36.40
76789;DHT22;65740;52.464;13.446;2023-07-20T05:56:06;24.80;36.40
76789;DHT22;65740;52.464;13.446;2023-07-20T05:58:36;24.80;36.50
76789;DHT22;65740;52.464;13.446;2023-07-20T06:01:03;24.80;36.40
76789;DHT22;65740;52.464;13.446;2023-07-20T06:03:31;24.80;36.50
76789;DHT22;65740;52.464;13.446;2023-07-20T06:06:00;24.80;36.20
76789;DHT22;65740;52.464;13.446;2023-07-20T06:08:28;24.70;36.50
76789;DHT22;65740;52.464;13.446;2023-07-20T06:10:53;24.70;36.40
76789;DHT22;65740;52.464;13.446;2023-07-20T06:13:19;24.70;36.50
76789;DHT22;65740;52.464;13.446;2023-07-20T06:15:45;24.70;36.50
76789;DHT22;65740;52.464;13.446;2023-07-20T06:18:10;24.70;36.60
76789;DHT22;65740;52.464;13.446;2023-07-20T06:20:36;24.70;36.60
76789;DHT22;65740;52.464;13.446;2023-07-20T06:23:02;24.70;36.60
76789;DHT22;65740;52.464;13.446;2023-07-20T06:25:27;24.70;36.50
76789;DHT22;65740;52.464;13.446;2023-07-20T06:27:55;24.70;36.60
76789;DHT22;65740;52.464;13.446;2023-07-20T06:30:21;24.70;36.50
76789;DHT22;65740;52.464;13.446;2023-07-20T06:32:47;24.70;36.60
76789;DHT22;65740;52.464;13.446;2023-07-20T06:35:14;24.70;36.80
76789;DHT22;65740;52.464;13.446;2023-07-20T06:37:39;24.70;36.60
76789;DHT22;65740;52.464;13.446;2023-07-20T06:40:06;24.70;36.90
76789;DHT22;65740;52.464;13.446;2023-07-20T06:42:34;24.70;36.80
76789;DHT22;65740;52.464;13.446;2023-07-20T06:45:00;24.70;36.80
76789;DHT22;65740;52.464;13.446;2023-07-20T06:47:26;24.70;36.70
76789;DHT22;65740;52.464;13.446;2023-07-20T06:49:52;24.70;36.90
76789;DHT22;65740;52.464;13.446;2023-07-20T06:52:17;24.70;36.80
76789;DHT22;65740;52.464;13.446;2023-07-20T06:54:43;24.70;36.90
76789;DHT22;65740;52.464;13.446;2023-07-20T06:57:08;24.70;36.70
76789;DHT22;65740;52.464;13.446;2023-07-20T06:59:34;24.70;37.00
76789;DHT22;65740;52.464;13.446;2023-07-20T07:01:59;24.70;37.00
76789;DHT22;65740;52.464;13.446;2023-07-20T07:04:25;24.70;37.10
76789;DHT22;65740;52.464;13.446;2023-07-20T07:06:51;24.70;37.10
76789;DHT22;65740;52.464;13.446;2023-07-20T07:09:17;24.70;37.00
76789;DHT22;65740;52.464;13.446;2023-07-20T07:11:43;24.60;36.90
76789;DHT22;65740;52.464;13.446;2023-07-20T07:14:10;24.70;37.00
76789;DHT22;65740;52.464;13.446;2023-07-20T07:16:35;24.70;37.10
76789;DHT22;65740;52.464;13.446;2023-07-20T07:19:01;24.70;37.00
76789;DHT22;65740;52.464;13.446;2023-07-20T07:21:26;24.70;37.10
76789;DHT22;65740;52.464;13.446;2023-07-20T07:23:52;24.70;37.20
76789;DHT22;65740;52.464;13.446;2023-07-20T07:26:23;24.70;37.10
76789;DHT22;65740;52.464;13.446;2023-07-20T07:28:49;24.70;37.10
76789;DHT22;65740;52.464;13.446;2023-07-20T07:31:15;24.70;37.00
76789;DHT22;65740;52.464;13.446;2023-07-20T07:33:40;24.70;36.90
76789;DHT22;65740;52.464;13.446;2023-07-20T07:36:06;24.70;37.00
76789;DHT22;65740;52.464;13.446;2023-07-20T07:38:32;24.70;37.00
76789;DHT22;65740;52.464;13.446;2023-07-20T07:40:58;24.70;37.00
76789;DHT22;65740;52.464;13.446;2023-07-20T07:43:24;24.70;37.10
76789;DHT22;65740;52.464;13.446;2023-07-20T07:45:49;24.70;37.00
76789;DHT22;65740;52.464;13.446;2023-07-20T07:48:15;24.70;37.10
76789;DHT22;65740;52.464;13.446;2023-07-20T07:50:41;24.70;37.10
76789;DHT22;65740;52.464;13.446;2023-07-20T07:53:07;24.70;37.00
76789;DHT22;65740;52.464;13.446;2023-07-20T07:55:34;24.70;37.00
76789;DHT22;65740;52.464;13.446;2023-07-20T07:58:00;24.80;37.10
76789;DHT22;65740;52.464;13.446;2023-07-20T08:00:26;24.80;37.00
76789;DHT22;65740;52.464;13.446;2023-07-20T08:02:51;24.80;37.20
76789;DHT22;65740;52.464;13.446;2023-07-20T08:05:17;24.80;36.90
76789;DHT22;65740;52.464;13.446;2023-07-20T08:07:43;24.80;37.20
76789;DHT22;65740;52.464;13.446;2023-07-20T08:10:09;24.80;37.10
76789;DHT22;65740;52.464;13.446;2023-07-20T08:12:35;24.80;37.10
76789;DHT22;65740;52.464;13.446;2023-07-20T08:15:01;24.80;37.10
76789;DHT22;65740;52.464;13.446;2023-07-20T08:17:27;24.80;37.80
76789;DHT22;65740;52.464;13.446;2023-07-20T08:19:52;24.90;37.10
76789;DHT22;65740;52.464;13.446;2023-07-20T08:22:18;24.90;37.10
76789;DHT22;65740;52.464;13.446;2023-07-20T08:24:44;24.80;37.90
76789;DHT22;65740;52.464;13.446;2023-07-20T08:27:10;24.80;37.90
76789;DHT22;65740;52.464;13.446;2023-07-20T08:29:36;24.70;38.20
76789;DHT22;65740;52.464;13.446;2023-07-20T08:32:02;24.70;38.80
76789;DHT22;65740;52.464;13.446;2023-07-20T08:34:29;24.50;39.10
76789;DHT22;65740;52.464;13.446;2023-07-20T08:36:55;24.50;40.20
76789;DHT22;65740;52.464;13.446;2023-07-20T08:39:21;24.40;40.50
76789;DHT22;65740;52.464;13.446;2023-07-20T08:41:48;24.30;40.10
76789;DHT22;65740;52.464;13.446;2023-07-20T08:44:14;24.30;40.60
76789;DHT22;65740;52.464;13.446;2023-07-20T08:46:40;24.20;40.50
76789;DHT22;65740;52.464;13.446;2023-07-20T08:49:06;24.10;40.20
76789;DHT22;65740;52.464;13.446;2023-07-20T08:51:33;24.10;40.20
76789;DHT22;65740;52.464;13.446;2023-07-20T08:54:00;24.10;40.40
76789;DHT22;65740;52.464;13.446;2023-07-20T08:56:26;24.10;40.40
76789;DHT22;65740;52.464;13.446;2023-07-20T08:58:53;24.00;41.00
76789;DHT22;65740;52.464;13.446;2023-07-20T09:01:19;24.10;41.20
76789;DHT22;65740;52.464;13.446;2023-07-20T09:03:45;24.00;41.10
76789;DHT22;65740;52.464;13.446;2023-07-20T09:06:12;24.00;41.20
76789;DHT22;65740;52.464;13.446;2023-07-20T09:08:41;24.00;41.10
76789;DHT22;65740;52.464;13.446;2023-07-20T09:11:07;24.10;41.20
76789;DHT22;65740;52.464;13.446;2023-07-20T09:13:34;24.10;41.20
76789;DHT22;65740;52.464;13.446;2023-07-20T09:16:00;24.10;41.20
76789;DHT22;65740;52.464;13.446;2023-07-20T09:18:30;24.20;41.20
76789;DHT22;65740;52.464;13.446;2023-07-20T09:21:02;24.20;41.20
76789;DHT22;65740;52.464;13.446;2023-07-20T09:23:35;24.20;41.20
76789;DHT22;65740;52.464;13.446;2023-07-20T09:26:09;24.20;40.80
76789;DHT22;65740;52.464;13.446;2023-07-20T09:28:52;24.10;40.70
76789;DHT22;65740;52.464;13.446;2023-07-20T09:31:19;24.20;40.50
76789;DHT22;65740;52.464;13.446;2023-07-20T09:33:46;24.20;40.40
76789;DHT22;65740;52.464;13.446;2023-07-20T09:36:12;24.20;40.40
76789;DHT22;65740;52.464;13.446;2023-07-20T09:38:39;24.20;40.30
76789;DHT22;65740;52.464;13.446;2023-07-20T09:41:05;24.20;40.30
76789;DHT22;65740;52.464;13.446;2023-07-20T09:43:34;24.20;41.30
76789;DHT22;65740;52.464;13.446;2023-07-20T09:46:00;24.10;41.20
76789;DHT22;65740;52.464;13.446;2023-07-20T09:48:26;24.00;41.10
76789;DHT22;65740;52.464;13.446;2023-07-20T09:50:53;24.10;41.20
76789;DHT22;65740;52.464;13.446;2023-07-20T09:53:20;24.10;41.20
76789;DHT22;65740;52.464;13.446;2023-07-20T09:55:47;24.10;41.20
76789;DHT22;65740;52.464;13.446;2023-07-20T09:58:13;24.00;41.10
76789;DHT22;65740;52.464;13.446;2023-07-20T10:00:40;24.00;41.10
76789;DHT22;65740;52.464;13.446;2023-07-20T10:03:06;24.00;41.10
76789;DHT22;65740;52.464;13.446;2023-07-20T10:05:43;24.10;41.20
76789;DHT22;65740;52.464;13.446;2023-07-20T10:08:12;24.10;41.10
76789;DHT22;65740;52.464;13.446;2023-07-20T10:10:40;24.10;41.20
76789;DHT22;65740;52.464;13.446;2023-07-20T10:13:10;24.10;41.20
76789;DHT22;65740;52.464;13.446;2023-07-20T10:15:50;24.10;40.60
76789;DHT22;65740;52.464;13.446;2023-07-20T10:18:29;24.00;41.10
76789;DHT22;65740;52.464;13.446;2023-07-20T10:20:56;24.00;40.60
76789;DHT22;65740;52.464;13.446;2023-07-20T10:23:24;24.00;41.10
76789;DHT22;65740;52.464;13.446;2023-07-20T10:25:52;24.10;41.20
76789;DHT22;65740;52.464;13.446;2023-07-20T10:28:19;24.10;41.20
76789;DHT22;65740;52.464;13.446;2023-07-20T10:30:45;24.20;41.20
76789;DHT22;65740;52.464;13.446;2023-07-20T10:33:11;24.20;41.30
76789;DHT22;65740;52.464;13.446;2023-07-20T10:38:18;24.20;41.20
76789;DHT22;65740;52.464;13.446;2023-07-20T10:40:54;24.30;41.40
76789;DHT22;65740;52.464;13.446;2023-07-20T10:43:20;24.30;42.00
76789;DHT22;65740;52.464;13.446;2023-07-20T10:45:50;24.20;41.50
76789;DHT22;65740;52.464;13.446;2023-07-20T10:48:23;24.10;41.20
76789;DHT22;65740;52.464;13.446;2023-07-20T10:51:11;24.10;41.30
76789;DHT22;65740;52.464;13.446;2023-07-20T10:53:39;24.30;42.00
76789;DHT22;65740;52.464;13.446;2023-07-20T10:56:07;24.30;41.30
76789;DHT22;65740;52.464;13.446;2023-07-20T10:58:33;24.40;41.40
76789;DHT22;65740;52.464;13.446;2023-07-20T11:01:03;24.40;41.40
76789;DHT22;65740;52.464;13.446;2023-07-20T11:03:34;24.40;41.40
76789;DHT22;65740;52.464;13.446;2023-07-20T11:06:00;24.50;41.50
76789;DHT22;65740;52.464;13.446;2023-07-20T11:08:45;24.50;41.50
76789;DHT22;65740;52.464;13.446;2023-07-20T11:11:29;24.50;41.60
76789;DHT22;65740;52.464;13.446;2023-07-20T11:16:45;24.50;41.50
76789;DHT22;65740;52.464;13.446;2023-07-20T11:19:24;24.50;41.50
76789;DHT22;65740;52.464;13.446;2023-07-20T11:21:52;24.50;42.10
76789;DHT22;65740;52.464;13.446;2023-07-20T11:24:18;24.50;41.50
76789;DHT22;65740;52.464;13.446;2023-07-20T11:26:46;24.50;41.50
76789;DHT22;65740;52.464;13.446;2023-07-20T11:29:13;24.60;41.60
76789;DHT22;65740;52.464;13.446;2023-07-20T11:31:41;24.60;41.60
76789;DHT22;65740;52.464;13.446;2023-07-20T11:34:12;24.60;41.60
76789;DHT22;65740;52.464;13.446;2023-07-20T11:36:41;24.60;42.30
76789;DHT22;65740;52.464;13.446;2023-07-20T11:39:11;24.60;41.60
76789;DHT22;65740;52.464;13.446;2023-07-20T11:41:38;24.60;41.60
76789;DHT22;65740;52.464;13.446;2023-07-20T11:44:05;24.60;41.60
76789;DHT22;65740;52.464;13.446;2023-07-20T11:46:39;24.70;41.70
76789;DHT22;65740;52.464;13.446;2023-07-20T11:49:05;24.70;41.50
76789;DHT22;65740;52.464;13.446;2023-07-20T11:51:31;24.70;41.70
76789;DHT22;65740;52.464;13.446;2023-07-20T11:53:58;24.70;41.70
76789;DHT22;65740;52.464;13.446;2023-07-20T11:56:27;24.80;41.70
76789;DHT22;65740;52.464;13.446;2023-07-20T11:59:00;24.80;41.70
76789;DHT22;65740;52.464;13.446;2023-07-20T12:01:28;24.80;41.70
76789;DHT22;65740;52.464;13.446;2023-07-20T12:04:02;24.90;41.80
76789;DHT22;65740;52.464;13.446;2023-07-20T12:06:29;24.90;41.80
76789;DHT22;65740;52.464;13.446;2023-07-20T12:08:59;24.90;41.90
76789;DHT22;65740;52.464;13.446;2023-07-20T12:11:35;24.90;41.20
76789;DHT22;65740;52.464;13.446;2023-07-20T12:14:02;24.90;41.80
76789;DHT22;65740;52.464;13.446;2023-07-20T12:16:28;25.00;41.90
76789;DHT22;65740;52.464;13.446;2023-07-20T12:21:29;25.00;41.70
76789;DHT22;65740;52.464;13.446;2023-07-20T12:23:57;25.00;41.70
76789;DHT22;65740;52.464;13.446;2023-07-20T12:26:24;25.00;41.90
76789;DHT22;65740;52.464;13.446;2023-07-20T12:28:50;25.00;41.50
76789;DHT22;65740;52.464;13.446;2023-07-20T12:31:16;25.00;41.70
76789;DHT22;65740;52.464;13.446;2023-07-20T12:33:42;24.90;41.20
76789;DHT22;65740;52.464;13.446;2023-07-20T12:36:09;25.00;41.90
76789;DHT22;65740;52.464;13.446;2023-07-20T12:38:34;24.90;41.70
76789;DHT22;65740;52.464;13.446;2023-07-20T12:41:01;25.00;41.30
76789;DHT22;65740;52.464;13.446;2023-07-20T12:43:27;25.00;41.10
76789;DHT22;65740;52.464;13.446;2023-07-20T12:45:52;24.90;41.20
76789;DHT22;65740;52.464;13.446;2023-07-20T12:48:18;24.90;41.10
76789;DHT22;65740;52.464;13.446;2023-07-20T12:50:44;24.90;40.70
76789;DHT22;65740;52.464;13.446;2023-07-20T12:53:09;25.00;40.40
76789;DHT22;65740;52.464;13.446;2023-07-20T12:55:35;25.00;40.30
76789;DHT22;65740;52.464;13.446;2023-07-20T12:58:01;25.00;40.50
76789;DHT22;65740;52.464;13.446;2023-07-20T13:00:26;25.00;40.10
76789;DHT22;65740;52.464;13.446;2023-07-20T13:02:52;25.00;39.90
76789;DHT22;65740;52.464;13.446;2023-07-20T13:05:17;25.10;39.80
76789;DHT22;65740;52.464;13.446;2023-07-20T13:07:43;25.10;39.50
76789;DHT22;65740;52.464;13.446;2023-07-20T13:10:10;25.10;39.70
76789;DHT22;65740;52.464;13.446;2023-07-20T13:12:37;25.00;39.70
76789;DHT22;65740;52.464;13.446;2023-07-20T13:15:04;25.00;39.00
76789;DHT22;65740;52.464;13.446;2023-07-20T13:17:37;25.10;38.40
76789;DHT22;65740;52.464;13.446;2023-07-20T13:20:05;25.00;39.10
76789;DHT22;65740;52.464;13.446;2023-07-20T13:22:32;25.00;37.60
76789;DHT22;65740;52.464;13.446;2023-07-20T13:24:57;25.10;38.20
76789;DHT22;65740;52.464;13.446;2023-07-20T13:27:23;25.10;36.40
76789;DHT22;65740;52.464;13.446;2023-07-20T13:29:51;25.10;36.50
76789;DHT22;65740;52.464;13.446;2023-07-20T13:32:17;25.10;35.70
76789;DHT22;65740;52.464;13.446;2023-07-20T13:34:46;25.10;36.10
76789;DHT22;65740;52.464;13.446;2023-07-20T13:37:13;25.10;38.40
76789;DHT22;65740;52.464;13.446;2023-07-20T13:39:39;25.10;36.50
76789;DHT22;65740;52.464;13.446;2023-07-20T13:42:06;25.10;35.20
76789;DHT22;65740;52.464;13.446;2023-07-20T13:44:32;25.10;35.80
76789;DHT22;65740;52.464;13.446;2023-07-20T13:46:57;25.10;35.00
76789;DHT22;65740;52.464;13.446;2023-07-20T13:49:23;25.20;35.90
76789;DHT22;65740;52.464;13.446;2023-07-20T13:51:49;25.20;34.00
76789;DHT22;65740;52.464;13.446;2023-07-20T13:54:15;25.20;35.00
76789;DHT22;65740;52.464;13.446;2023-07-20T13:56:40;25.30;35.00
76789;DHT22;65740;52.464;13.446;2023-07-20T13:59:06;25.30;34.60
76789;DHT22;65740;52.464;13.446;2023-07-20T14:01:32;25.30;35.30
76789;DHT22;65740;52.464;13.446;2023-07-20T14:04:01;25.30;34.70
76789;DHT22;65740;52.464;13.446;2023-07-20T14:06:31;25.30;34.00
76789;DHT22;65740;52.464;13.446;2023-07-20T14:08:58;25.20;34.00
76789;DHT22;65740;52.464;13.446;2023-07-20T14:11:24;25.30;34.00
76789;DHT22;65740;52.464;13.446;2023-07-20T14:13:51;25.30;37.80
76789;DHT22;65740;52.464;13.446;2023-07-20T14:16:18;25.30;35.50
76789;DHT22;65740;52.464;13.446;2023-07-20T14:18:44;25.30;33.80
76789;DHT22;65740;52.464;13.446;2023-07-20T14:21:12;25.40;35.00
76789;DHT22;65740;52.464;13.446;2023-07-20T14:23:38;25.40;34.00
76789;DHT22;65740;52.464;13.446;2023-07-20T14:26:04;25.40;33.90
76789;DHT22;65740;52.464;13.446;2023-07-20T14:28:34;25.40;34.40
76789;DHT22;65740;52.464;13.446;2023-07-20T14:31:00;25.40;35.20
76789;DHT22;65740;52.464;13.446;2023-07-20T14:33:25;25.50;34.30
76789;DHT22;65740;52.464;13.446;2023-07-20T14:35:51;25.50;33.10
76789;DHT22;65740;52.464;13.446;2023-07-20T14:38:16;25.50;34.50
76789;DHT22;65740;52.464;13.446;2023-07-20T14:40:42;25.50;33.30
76789;DHT22;65740;52.464;13.446;2023-07-20T14:43:08;25.60;34.50
76789;DHT22;65740;52.464;13.446;2023-07-20T14:45:34;25.60;33.30
76789;DHT22;65740;52.464;13.446;2023-07-20T14:48:00;25.60;35.20
76789;DHT22;65740;52.464;13.446;2023-07-20T14:50:26;25.60;33.00
76789;DHT22;65740;52.464;13.446;2023-07-20T14:52:52;25.70;33.50
76789;DHT22;65740;52.464;13.446;2023-07-20T14:55:17;25.70;33.70
76789;DHT22;65740;52.464;13.446;2023-07-20T14:57:43;25.70;33.00
76789;DHT22;65740;52.464;13.446;2023-07-20T15:00:09;25.70;33.00
76789;DHT22;65740;52.464;13.446;2023-07-20T15:02:36;25.70;35.00
76789;DHT22;65740;52.464;13.446;2023-07-20T15:05:03;25.70;33.20
76789;DHT22;65740;52.464;13.446;2023-07-20T15:07:28;25.80;33.80
76789;DHT22;65740;52.464;13.446;2023-07-20T15:09:54;25.80;34.30
76789;DHT22;65740;52.464;13.446;2023-07-20T15:12:20;25.80;34.80
76789;DHT22;65740;52.464;13.446;2023-07-20T15:15:02;25.80;33.10
76789;DHT22;65740;52.464;13.446;2023-07-20T15:17:28;25.90;33.70
76789;DHT22;65740;52.464;13.446;2023-07-20T15:19:54;25.90;33.50
76789;DHT22;65740;52.464;13.446;2023-07-20T15:22:20;25.90;33.10
76789;DHT22;65740;52.464;13.446;2023-07-20T15:24:47;25.90;33.10
76789;DHT22;65740;52.464;13.446;2023-07-20T15:27:12;25.90;33.10
76789;DHT22;65740;52.464;13.446;2023-07-20T15:29:38;25.90;33.10
76789;DHT22;65740;52.464;13.446;2023-07-20T15:32:04;26.00;33.20
76789;DHT22;65740;52.464;13.446;2023-07-20T15:34:31;25.90;33.40
76789;DHT22;65740;52.464;13.446;2023-07-20T15:36:57;26.00;33.80
76789;DHT22;65740;52.464;13.446;2023-07-20T15:39:22;26.00;33.20